TimeEDT,TemperatureF,Dew PointF,Humidity,Sea Level PressureIn,VisibilityMPH,Wind Direction,Wind SpeedMPH,Gust SpeedMPH,PrecipitationIn,Events,Conditions,WindDirDegrees,DateUTC
12:53 AM,66.9,59.0,76,30.04,10.0,Calm,Calm,-,N/A,,Clear,0,2013-05-18 04:53:00
1:53 AM,66.0,60.1,81,30.03,10.0,Calm,Calm,-,N/A,,Partly Cloudy,0,2013-05-18 05:53:00
2:53 AM,64.9,60.1,84,30.02,10.0,Calm,Calm,-,N/A,,Clear,0,2013-05-18 06:53:00
3:53 AM,64.0,61.0,90,30.03,8.0,Calm,Calm,-,N/A,,Clear,0,2013-05-18 07:53:00
4:53 AM,63.0,60.1,90,30.04,8.0,Calm,Calm,-,N/A,,Clear,0,2013-05-18 08:53:00
5:53 AM,61.0,57.9,90,30.05,7.0,NNE,4.6,-,N/A,,Partly Cloudy,20,2013-05-18 09:53:00
6:53 AM,63.0,60.1,90,30.06,5.0,NNE,3.5,-,N/A,,Scattered Clouds,30,2013-05-18 10:53:00
7:53 AM,64.9,61.0,87,30.08,9.0,Calm,Calm,-,N/A,,Mostly Cloudy,0,2013-05-18 11:53:00
8:53 AM,66.0,62.1,87,30.09,7.0,Calm,Calm,-,0.00,Rain,Light Rain,0,2013-05-18 12:53:00
9:38 AM,64.4,62.6,94,30.17,2.5,Calm,Calm,-,0.06,Rain,Rain,0,2013-05-18 13:38:00
9:53 AM,64.0,62.1,93,30.11,2.0,Calm,Calm,-,0.09,Rain,Rain,0,2013-05-18 13:53:00
10:45 AM,64.4,62.6,94,30.16,3.0,Calm,Calm,-,0.11,Rain,Light Rain,0,2013-05-18 14:45:00
10:53 AM,64.9,63.0,93,30.11,4.0,Calm,Calm,-,0.11,Rain,Light Rain,0,2013-05-18 14:53:00
11:18 AM,64.4,62.6,94,30.17,2.0,Calm,Calm,-,0.04,Rain,Rain,0,2013-05-18 15:18:00
11:39 AM,66.2,62.6,88,30.16,3.0,Calm,Calm,-,0.05,Rain,Light Rain,0,2013-05-18 15:39:00
11:53 AM,66.9,63.0,87,30.10,3.0,Calm,Calm,-,0.05,Rain,Light Rain,0,2013-05-18 15:53:00
12:53 PM,68.0,64.0,87,30.10,10.0,South,3.5,-,0.00,Rain,Light Rain,190,2013-05-18 16:53:00
1:35 PM,69.8,64.4,83,30.14,7.0,Calm,Calm,-,0.00,Rain,Light Rain,0,2013-05-18 17:35:00
1:48 PM,68.0,64.4,88,30.13,6.0,Calm,Calm,-,0.01,Rain,Light Rain,0,2013-05-18 17:48:00
1:53 PM,69.1,64.9,87,30.08,8.0,SSE,3.5,-,0.01,Rain,Light Rain,160,2013-05-18 17:53:00
2:00 PM,69.8,64.4,83,30.13,8.0,Variable,3.5,-,0.00,Rain,Light Rain,0,2013-05-18 18:00:00
2:27 PM,68.0,64.4,88,30.13,7.0,Calm,Calm,-,0.00,,Overcast,0,2013-05-18 18:27:00
2:35 PM,68.0,64.4,88,30.12,7.0,Variable,3.5,-,0.00,,Overcast,0,2013-05-18 18:35:00
2:42 PM,68.0,64.4,88,30.12,8.0,Calm,Calm,-,0.00,Rain,Light Rain,0,2013-05-18 18:42:00
3:53 PM,66.9,64.0,90,30.06,5.0,Calm,Calm,-,0.01,Rain,Light Rain,0,2013-05-18 19:53:00
4:04 PM,68.0,64.4,88,30.11,6.0,Variable,3.5,-,0.00,Rain,Light Rain,0,2013-05-18 20:04:00
4:15 PM,66.2,64.4,94,30.11,6.0,Calm,Calm,-,0.00,Rain,Light Rain,0,2013-05-18 20:15:00
4:34 PM,66.2,64.4,94,30.11,7.0,Variable,3.5,-,0.00,Rain,Light Rain,0,2013-05-18 20:34:00
4:50 PM,66.2,64.4,94,30.11,6.0,Calm,Calm,-,0.00,Rain,Light Rain,0,2013-05-18 20:50:00
4:53 PM,66.9,64.0,90,30.06,6.0,Variable,3.5,-,0.00,Rain,Light Rain,0,2013-05-18 20:53:00
5:04 PM,66.2,64.4,94,30.10,6.0,Variable,3.5,-,0.00,Rain,Light Rain,0,2013-05-18 21:04:00
5:44 PM,66.2,62.6,88,30.10,9.0,Variable,3.5,-,0.00,,Overcast,0,2013-05-18 21:44:00
5:53 PM,66.9,64.0,90,30.05,9.0,Calm,Calm,-,0.00,,Mostly Cloudy,0,2013-05-18 21:53:00
6:21 PM,66.2,62.6,88,30.10,8.0,Variable,3.5,-,N/A,,Overcast,0,2013-05-18 22:21:00
6:28 PM,66.2,62.6,88,30.10,8.0,Variable,3.5,-,N/A,,Overcast,0,2013-05-18 22:28:00
6:39 PM,66.2,62.6,88,30.10,8.0,Variable,3.5,-,N/A,,Overcast,0,2013-05-18 22:39:00
6:53 PM,66.9,63.0,87,30.05,9.0,Calm,Calm,-,N/A,,Overcast,0,2013-05-18 22:53:00
7:12 PM,66.2,62.6,88,30.10,8.0,Calm,Calm,-,N/A,,Overcast,0,2013-05-18 23:12:00
7:36 PM,66.2,64.4,94,30.11,8.0,Calm,Calm,-,0.00,,Overcast,0,2013-05-18 23:36:00
7:53 PM,66.9,64.0,90,30.06,7.0,Calm,Calm,-,0.00,,Overcast,0,2013-05-18 23:53:00
8:53 PM,66.9,64.0,90,30.06,8.0,Calm,Calm,-,0.00,,Overcast,0,2013-05-19 00:53:00
9:53 PM,66.9,64.0,90,30.06,8.0,Calm,Calm,-,N/A,,Overcast,0,2013-05-19 01:53:00
10:53 PM,66.9,63.0,87,30.06,8.0,Calm,Calm,-,N/A,,Overcast,0,2013-05-19 02:53:00
11:50 PM,64.4,62.6,94,30.11,6.0,ESE,3.5,-,0.00,,Overcast,120,2013-05-19 03:50:00